Current | Forecast
Updated: 6:30 PM +05 on June 25, 2017
Observed at Perm' Airport, Russia
Temperature 54°F
Humidity 94%
Dew Point 52°F
Wind NW at 11 mph
Pressure 29.42 in (Steady)
Conditions Light Rain
Visibility 3.7 miles
UV 1 out of 16
Clouds Mostly Cloudy (BKN) : 600 ft
Yesterday's Maximum 64°F
Yesterday's Minimum 46°F approx.
Yesterday's Heating Degree Days 10 approx.
Sunrise4:16 AM +05
Sunset10:15 PM +05
Moon Rise6:01 AM +05
Moon Set10:56 PM +05
Moon PhaseMoon Phase
Waxing Crescent
Raw METARMETAR USPP 251330Z 31005MPS 6000 -RA BKN006 12/11 Q0996 R21/290550 NOSIG RMK QBB180 QFE737


Monday
. High: 75° F.
Tuesday
. High: 80° F.
Wednesday
. High: 78° F.
Thursday
. High: 55° F.
Friday
. High: 53° F.
Saturday
. High: 55° F.
Sunday
. High: 53° F.
Monday
. High: 59° F.

Units: English | Metric

Find the Weather for any City, State or Zipcode, or Country:

U.S. State List | Severe Weather | Tropical Storms | Ski Conditions
United States | Canada | Central America | South America | Asia | Europe | Australia | Africa | Islands

Weather Underground

© Copyright 2017
The Weather Company, LLC